sensor_id;sensor_type;location;lat;lon;timestamp;temperature;humidity
46366;DHT22;32073;49.166;8.076;2022-09-25T00:03:33;18.30;62.40
46366;DHT22;32073;49.166;8.076;2022-09-25T00:07:34;18.30;62.60
46366;DHT22;32073;49.166;8.076;2022-09-25T00:11:35;18.30;62.70
46366;DHT22;32073;49.166;8.076;2022-09-25T00:15:40;18.30;62.80
46366;DHT22;32073;49.166;8.076;2022-09-25T00:19:45;18.30;62.80
46366;DHT22;32073;49.166;8.076;2022-09-25T00:23:52;18.30;62.90
46366;DHT22;32073;49.166;8.076;2022-09-25T00:27:54;18.30;62.80
46366;DHT22;32073;49.166;8.076;2022-09-25T00:31:55;18.30;62.90
46366;DHT22;32073;49.166;8.076;2022-09-25T00:36:03;18.40;63.00
46366;DHT22;32073;49.166;8.076;2022-09-25T00:40:05;18.30;63.00
46366;DHT22;32073;49.166;8.076;2022-09-25T00:44:48;18.30;62.80
46366;DHT22;32073;49.166;8.076;2022-09-25T00:48:56;18.30;63.30
46366;DHT22;32073;49.166;8.076;2022-09-25T00:53:12;18.30;63.10
46366;DHT22;32073;49.166;8.076;2022-09-25T00:57:19;18.20;63.20
46366;DHT22;32073;49.166;8.076;2022-09-25T01:01:22;18.10;63.20
46366;DHT22;32073;49.166;8.076;2022-09-25T01:05:31;18.10;63.10
46366;DHT22;32073;49.166;8.076;2022-09-25T01:09:32;18.20;63.50
46366;DHT22;32073;49.166;8.076;2022-09-25T01:13:33;18.00;63.10
46366;DHT22;32073;49.166;8.076;2022-09-25T01:30:42;18.00;63.30
46366;DHT22;32073;49.166;8.076;2022-09-25T01:39:38;17.90;63.80
46366;DHT22;32073;49.166;8.076;2022-09-25T01:44:15;17.90;63.80
46366;DHT22;32073;49.166;8.076;2022-09-25T01:48:27;17.90;64.00
46366;DHT22;32073;49.166;8.076;2022-09-25T01:52:35;17.90;63.70
46366;DHT22;32073;49.166;8.076;2022-09-25T01:56:50;17.90;64.10
46366;DHT22;32073;49.166;8.076;2022-09-25T02:00:59;17.90;64.00
46366;DHT22;32073;49.166;8.076;2022-09-25T02:05:19;18.00;64.30
46366;DHT22;32073;49.166;8.076;2022-09-25T02:13:48;17.90;64.20
46366;DHT22;32073;49.166;8.076;2022-09-25T02:22:29;18.00;64.30
46366;DHT22;32073;49.166;8.076;2022-09-25T02:26:34;18.00;64.30
46366;DHT22;32073;49.166;8.076;2022-09-25T02:30:35;18.00;64.70
46366;DHT22;32073;49.166;8.076;2022-09-25T02:34:36;18.00;64.20
46366;DHT22;32073;49.166;8.076;2022-09-25T02:38:37;17.90;64.10
46366;DHT22;32073;49.166;8.076;2022-09-25T02:43:02;17.90;64.20
46366;DHT22;32073;49.166;8.076;2022-09-25T02:51:56;17.90;64.60
46366;DHT22;32073;49.166;8.076;2022-09-25T03:00:20;17.90;64.60
46366;DHT22;32073;49.166;8.076;2022-09-25T03:04:24;17.90;64.60
46366;DHT22;32073;49.166;8.076;2022-09-25T03:08:27;17.80;64.70
46366;DHT22;32073;49.166;8.076;2022-09-25T03:12:42;17.90;64.80
46366;DHT22;32073;49.166;8.076;2022-09-25T03:16:51;17.90;64.70
46366;DHT22;32073;49.166;8.076;2022-09-25T03:20:56;17.90;65.00
46366;DHT22;32073;49.166;8.076;2022-09-25T03:24:57;17.90;64.70
46366;DHT22;32073;49.166;8.076;2022-09-25T03:28:57;17.80;64.70
46366;DHT22;32073;49.166;8.076;2022-09-25T03:33:01;17.80;64.70
46366;DHT22;32073;49.166;8.076;2022-09-25T03:37:02;17.90;64.90
46366;DHT22;32073;49.166;8.076;2022-09-25T03:41:04;17.80;64.80
46366;DHT22;32073;49.166;8.076;2022-09-25T03:45:08;17.80;64.90
46366;DHT22;32073;49.166;8.076;2022-09-25T03:49:10;17.80;64.90
46366;DHT22;32073;49.166;8.076;2022-09-25T03:53:12;17.80;65.10
46366;DHT22;32073;49.166;8.076;2022-09-25T03:57:13;17.80;65.10
46366;DHT22;32073;49.166;8.076;2022-09-25T04:01:14;17.80;65.20
46366;DHT22;32073;49.166;8.076;2022-09-25T04:05:16;17.80;65.30
46366;DHT22;32073;49.166;8.076;2022-09-25T04:09:19;17.80;65.30
46366;DHT22;32073;49.166;8.076;2022-09-25T04:13:20;17.80;65.20
46366;DHT22;32073;49.166;8.076;2022-09-25T04:17:20;17.80;65.20
46366;DHT22;32073;49.166;8.076;2022-09-25T04:21:21;17.80;65.20
46366;DHT22;32073;49.166;8.076;2022-09-25T04:25:22;17.80;65.30
46366;DHT22;32073;49.166;8.076;2022-09-25T04:29:24;17.80;65.20
46366;DHT22;32073;49.166;8.076;2022-09-25T04:33:25;17.70;65.20
46366;DHT22;32073;49.166;8.076;2022-09-25T04:37:44;17.80;65.30
46366;DHT22;32073;49.166;8.076;2022-09-25T04:41:45;17.70;65.20
46366;DHT22;32073;49.166;8.076;2022-09-25T04:45:45;17.70;65.30
46366;DHT22;32073;49.166;8.076;2022-09-25T04:49:47;17.60;65.20
46366;DHT22;32073;49.166;8.076;2022-09-25T04:53:48;17.70;65.30
46366;DHT22;32073;49.166;8.076;2022-09-25T04:57:53;17.60;65.30
46366;DHT22;32073;49.166;8.076;2022-09-25T05:01:54;17.60;65.50
46366;DHT22;32073;49.166;8.076;2022-09-25T05:05:55;17.60;65.50
46366;DHT22;32073;49.166;8.076;2022-09-25T05:09:56;17.60;65.50
46366;DHT22;32073;49.166;8.076;2022-09-25T05:13:58;17.60;65.60
46366;DHT22;32073;49.166;8.076;2022-09-25T05:18:00;17.70;65.70
46366;DHT22;32073;49.166;8.076;2022-09-25T05:22:02;17.70;65.80
46366;DHT22;32073;49.166;8.076;2022-09-25T05:26:03;17.70;65.80
46366;DHT22;32073;49.166;8.076;2022-09-25T05:30:04;17.70;65.60
46366;DHT22;32073;49.166;8.076;2022-09-25T05:34:05;17.70;65.60
46366;DHT22;32073;49.166;8.076;2022-09-25T05:38:07;17.70;65.60
46366;DHT22;32073;49.166;8.076;2022-09-25T05:42:08;17.70;65.70
46366;DHT22;32073;49.166;8.076;2022-09-25T05:46:09;17.70;65.70
46366;DHT22;32073;49.166;8.076;2022-09-25T05:50:16;17.70;65.70
46366;DHT22;32073;49.166;8.076;2022-09-25T05:54:17;17.70;65.80
46366;DHT22;32073;49.166;8.076;2022-09-25T05:58:18;17.70;65.80
46366;DHT22;32073;49.166;8.076;2022-09-25T06:02:21;17.70;65.90
46366;DHT22;32073;49.166;8.076;2022-09-25T06:06:21;17.80;66.00
46366;DHT22;32073;49.166;8.076;2022-09-25T06:10:22;17.80;66.20
46366;DHT22;32073;49.166;8.076;2022-09-25T06:14:25;17.80;66.20
46366;DHT22;32073;49.166;8.076;2022-09-25T06:18:26;17.80;66.20
46366;DHT22;32073;49.166;8.076;2022-09-25T06:22:27;17.90;66.10
46366;DHT22;32073;49.166;8.076;2022-09-25T06:26:28;18.00;66.10
46366;DHT22;32073;49.166;8.076;2022-09-25T06:30:32;17.90;66.10
46366;DHT22;32073;49.166;8.076;2022-09-25T06:34:33;18.00;66.10
46366;DHT22;32073;49.166;8.076;2022-09-25T06:38:34;18.00;66.10
46366;DHT22;32073;49.166;8.076;2022-09-25T06:42:35;18.10;66.10
46366;DHT22;32073;49.166;8.076;2022-09-25T06:46:36;18.10;66.10
46366;DHT22;32073;49.166;8.076;2022-09-25T06:50:49;18.10;65.90
46366;DHT22;32073;49.166;8.076;2022-09-25T06:54:51;18.10;66.10
46366;DHT22;32073;49.166;8.076;2022-09-25T06:58:51;18.10;65.90
46366;DHT22;32073;49.166;8.076;2022-09-25T07:02:52;18.10;65.90
46366;DHT22;32073;49.166;8.076;2022-09-25T07:07:11;18.10;65.90
46366;DHT22;32073;49.166;8.076;2022-09-25T07:11:15;18.10;65.90
46366;DHT22;32073;49.166;8.076;2022-09-25T07:15:17;18.20;66.40
46366;DHT22;32073;49.166;8.076;2022-09-25T07:19:18;18.20;66.10
46366;DHT22;32073;49.166;8.076;2022-09-25T07:23:20;18.30;66.30
46366;DHT22;32073;49.166;8.076;2022-09-25T07:27:21;18.30;66.40
46366;DHT22;32073;49.166;8.076;2022-09-25T07:31:25;18.30;66.50
46366;DHT22;32073;49.166;8.076;2022-09-25T07:35:27;18.40;66.50
46366;DHT22;32073;49.166;8.076;2022-09-25T07:39:27;18.40;66.40
46366;DHT22;32073;49.166;8.076;2022-09-25T07:43:28;18.50;66.50
46366;DHT22;32073;49.166;8.076;2022-09-25T07:47:29;18.50;66.30
46366;DHT22;32073;49.166;8.076;2022-09-25T07:51:29;18.60;66.00
46366;DHT22;32073;49.166;8.076;2022-09-25T07:55:30;18.60;66.00
46366;DHT22;32073;49.166;8.076;2022-09-25T07:59:30;18.70;66.00
46366;DHT22;32073;49.166;8.076;2022-09-25T08:03:31;18.70;65.80
46366;DHT22;32073;49.166;8.076;2022-09-25T08:07:32;18.70;65.90
46366;DHT22;32073;49.166;8.076;2022-09-25T08:11:33;18.60;65.90
46366;DHT22;32073;49.166;8.076;2022-09-25T08:15:34;18.80;66.10
46366;DHT22;32073;49.166;8.076;2022-09-25T08:19:34;18.80;65.90
46366;DHT22;32073;49.166;8.076;2022-09-25T08:23:35;18.70;65.70
46366;DHT22;32073;49.166;8.076;2022-09-25T08:27:36;18.70;65.60
46366;DHT22;32073;49.166;8.076;2022-09-25T08:31:40;18.70;65.60
46366;DHT22;32073;49.166;8.076;2022-09-25T08:35:41;18.70;65.70
46366;DHT22;32073;49.166;8.076;2022-09-25T08:39:42;18.70;65.70
46366;DHT22;32073;49.166;8.076;2022-09-25T08:48:55;18.80;65.50
46366;DHT22;32073;49.166;8.076;2022-09-25T08:53:11;18.90;64.90
46366;DHT22;32073;49.166;8.076;2022-09-25T08:57:35;18.90;64.90
46366;DHT22;32073;49.166;8.076;2022-09-25T09:01:41;19.00;65.00
46366;DHT22;32073;49.166;8.076;2022-09-25T09:05:45;19.00;65.00
46366;DHT22;32073;49.166;8.076;2022-09-25T09:09:51;19.00;65.30
46366;DHT22;32073;49.166;8.076;2022-09-25T09:14:18;18.90;65.10
46366;DHT22;32073;49.166;8.076;2022-09-25T09:18:31;19.00;65.20
46366;DHT22;32073;49.166;8.076;2022-09-25T09:22:40;19.00;65.10
46366;DHT22;32073;49.166;8.076;2022-09-25T09:35:41;18.90;64.60
46366;DHT22;32073;49.166;8.076;2022-09-25T09:49:38;18.90;64.80
46366;DHT22;32073;49.166;8.076;2022-09-25T09:54:37;18.90;64.90
46366;DHT22;32073;49.166;8.076;2022-09-25T09:58:26;18.90;64.80
46366;DHT22;32073;49.166;8.076;2022-09-25T10:02:37;18.90;64.80
46366;DHT22;32073;49.166;8.076;2022-09-25T10:06:48;19.00;65.10
46366;DHT22;32073;49.166;8.076;2022-09-25T10:10:52;19.00;64.90
46366;DHT22;32073;49.166;8.076;2022-09-25T10:14:54;19.00;65.00
46366;DHT22;32073;49.166;8.076;2022-09-25T10:19:19;19.00;65.20
46366;DHT22;32073;49.166;8.076;2022-09-25T10:23:40;19.10;65.40
46366;DHT22;32073;49.166;8.076;2022-09-25T10:27:51;19.10;65.10
46366;DHT22;32073;49.166;8.076;2022-09-25T10:32:02;19.10;64.90
46366;DHT22;32073;49.166;8.076;2022-09-25T10:36:03;19.00;64.90
46366;DHT22;32073;49.166;8.076;2022-09-25T10:40:10;19.00;64.50
46366;DHT22;32073;49.166;8.076;2022-09-25T10:48:37;19.00;65.10
46366;DHT22;32073;49.166;8.076;2022-09-25T10:52:57;18.90;64.90
46366;DHT22;32073;49.166;8.076;2022-09-25T10:56:59;19.00;65.20
46366;DHT22;32073;49.166;8.076;2022-09-25T11:01:02;19.00;65.90
46366;DHT22;32073;49.166;8.076;2022-09-25T11:05:04;19.10;65.20
46366;DHT22;32073;49.166;8.076;2022-09-25T11:09:16;19.00;65.60
46366;DHT22;32073;49.166;8.076;2022-09-25T11:13:25;19.10;65.20
46366;DHT22;32073;49.166;8.076;2022-09-25T11:17:41;19.20;65.40
46366;DHT22;32073;49.166;8.076;2022-09-25T11:26:16;19.40;65.00
46366;DHT22;32073;49.166;8.076;2022-09-25T11:30:21;19.50;65.60
46366;DHT22;32073;49.166;8.076;2022-09-25T11:39:11;19.80;64.60
46366;DHT22;32073;49.166;8.076;2022-09-25T12:01:00;20.30;63.10
46366;DHT22;32073;49.166;8.076;2022-09-25T12:10:15;20.40;62.70
46366;DHT22;32073;49.166;8.076;2022-09-25T12:19:23;20.30;62.70
46366;DHT22;32073;49.166;8.076;2022-09-25T12:23:55;20.20;63.10
46366;DHT22;32073;49.166;8.076;2022-09-25T12:37:29;19.40;65.60
46366;DHT22;32073;49.166;8.076;2022-09-25T12:41:50;19.20;65.30
46366;DHT22;32073;49.166;8.076;2022-09-25T12:46:01;19.00;66.30
46366;DHT22;32073;49.166;8.076;2022-09-25T12:50:13;18.90;65.70
46366;DHT22;32073;49.166;8.076;2022-09-25T12:54:31;18.70;66.10
46366;DHT22;32073;49.166;8.076;2022-09-25T12:58:38;18.70;66.90
46366;DHT22;32073;49.166;8.076;2022-09-25T13:03:33;18.60;66.50
46366;DHT22;32073;49.166;8.076;2022-09-25T13:08:08;18.80;66.40
46366;DHT22;32073;49.166;8.076;2022-09-25T13:12:35;18.80;67.10
46366;DHT22;32073;49.166;8.076;2022-09-25T13:16:36;19.00;66.80
46366;DHT22;32073;49.166;8.076;2022-09-25T13:24:45;19.20;66.90
46366;DHT22;32073;49.166;8.076;2022-09-25T13:32:58;19.50;67.30
46366;DHT22;32073;49.166;8.076;2022-09-25T13:37:05;19.70;67.10
46366;DHT22;32073;49.166;8.076;2022-09-25T13:41:12;19.80;66.80
46366;DHT22;32073;49.166;8.076;2022-09-25T13:45:34;19.90;66.70
46366;DHT22;32073;49.166;8.076;2022-09-25T13:49:36;20.10;66.10
46366;DHT22;32073;49.166;8.076;2022-09-25T13:53:59;20.20;66.10
46366;DHT22;32073;49.166;8.076;2022-09-25T13:58:18;20.20;66.10
46366;DHT22;32073;49.166;8.076;2022-09-25T14:02:40;20.30;65.80
46366;DHT22;32073;49.166;8.076;2022-09-25T14:06:47;20.40;65.60
46366;DHT22;32073;49.166;8.076;2022-09-25T14:10:54;20.30;65.30
46366;DHT22;32073;49.166;8.076;2022-09-25T14:15:06;20.40;65.10
46366;DHT22;32073;49.166;8.076;2022-09-25T14:19:22;20.50;64.80
46366;DHT22;32073;49.166;8.076;2022-09-25T14:23:28;20.60;64.70
46366;DHT22;32073;49.166;8.076;2022-09-25T14:27:32;20.70;64.50
46366;DHT22;32073;49.166;8.076;2022-09-25T14:31:46;20.80;64.30
46366;DHT22;32073;49.166;8.076;2022-09-25T14:36:46;20.80;63.50
46366;DHT22;32073;49.166;8.076;2022-09-25T14:46:08;20.70;61.50
46366;DHT22;32073;49.166;8.076;2022-09-25T14:50:23;20.40;61.40
46366;DHT22;32073;49.166;8.076;2022-09-25T14:54:30;20.00;61.30
46366;DHT22;32073;49.166;8.076;2022-09-25T14:58:38;19.50;61.40
46366;DHT22;32073;49.166;8.076;2022-09-25T15:02:44;19.30;61.70
46366;DHT22;32073;49.166;8.076;2022-09-25T15:07:29;19.00;63.70
46366;DHT22;32073;49.166;8.076;2022-09-25T15:11:25;18.60;65.50
46366;DHT22;32073;49.166;8.076;2022-09-25T15:15:26;18.40;66.90
46366;DHT22;32073;49.166;8.076;2022-09-25T15:19:31;18.00;68.60
46366;DHT22;32073;49.166;8.076;2022-09-25T15:23:35;17.80;70.50
46366;DHT22;32073;49.166;8.076;2022-09-25T15:27:40;17.50;71.40
46366;DHT22;32073;49.166;8.076;2022-09-25T15:31:45;17.40;72.80
46366;DHT22;32073;49.166;8.076;2022-09-25T15:36:00;17.50;73.60
46366;DHT22;32073;49.166;8.076;2022-09-25T15:40:22;17.40;74.60
46366;DHT22;32073;49.166;8.076;2022-09-25T15:44:25;17.40;75.00
46366;DHT22;32073;49.166;8.076;2022-09-25T15:48:30;17.30;75.50
46366;DHT22;32073;49.166;8.076;2022-09-25T15:52:35;17.40;76.50
46366;DHT22;32073;49.166;8.076;2022-09-25T15:56:44;17.40;76.40
46366;DHT22;32073;49.166;8.076;2022-09-25T16:01:00;17.40;77.20
46366;DHT22;32073;49.166;8.076;2022-09-25T16:05:28;17.40;78.00
46366;DHT22;32073;49.166;8.076;2022-09-25T16:09:32;17.40;77.30
46366;DHT22;32073;49.166;8.076;2022-09-25T16:13:36;17.40;76.90
46366;DHT22;32073;49.166;8.076;2022-09-25T16:17:40;17.40;76.80
46366;DHT22;32073;49.166;8.076;2022-09-25T16:21:42;17.30;76.60
46366;DHT22;32073;49.166;8.076;2022-09-25T16:25:43;17.30;76.80
46366;DHT22;32073;49.166;8.076;2022-09-25T16:29:44;17.20;76.80
46366;DHT22;32073;49.166;8.076;2022-09-25T16:33:48;17.10;76.70
46366;DHT22;32073;49.166;8.076;2022-09-25T16:37:52;17.10;77.10
46366;DHT22;32073;49.166;8.076;2022-09-25T16:41:54;17.10;77.10
46366;DHT22;32073;49.166;8.076;2022-09-25T16:46:01;17.10;77.20
46366;DHT22;32073;49.166;8.076;2022-09-25T16:50:02;17.10;77.60
46366;DHT22;32073;49.166;8.076;2022-09-25T16:54:08;17.10;77.60
46366;DHT22;32073;49.166;8.076;2022-09-25T16:58:10;17.10;77.90
46366;DHT22;32073;49.166;8.076;2022-09-25T17:02:29;17.20;77.70
46366;DHT22;32073;49.166;8.076;2022-09-25T17:06:36;17.20;77.90
46366;DHT22;32073;49.166;8.076;2022-09-25T17:10:40;17.30;77.20
46366;DHT22;32073;49.166;8.076;2022-09-25T17:14:41;17.20;76.40
46366;DHT22;32073;49.166;8.076;2022-09-25T17:18:41;17.10;76.40
46366;DHT22;32073;49.166;8.076;2022-09-25T17:22:42;17.10;76.40
46366;DHT22;32073;49.166;8.076;2022-09-25T17:26:43;17.00;76.40
46366;DHT22;32073;49.166;8.076;2022-09-25T17:30:44;17.10;76.60
46366;DHT22;32073;49.166;8.076;2022-09-25T17:34:45;17.00;76.60
46366;DHT22;32073;49.166;8.076;2022-09-25T17:38:46;17.00;76.50
46366;DHT22;32073;49.166;8.076;2022-09-25T17:42:47;17.00;76.40
46366;DHT22;32073;49.166;8.076;2022-09-25T17:46:51;17.00;76.20
46366;DHT22;32073;49.166;8.076;2022-09-25T17:51:02;17.00;76.00
46366;DHT22;32073;49.166;8.076;2022-09-25T17:55:16;17.00;75.80
46366;DHT22;32073;49.166;8.076;2022-09-25T17:59:19;17.00;75.90
46366;DHT22;32073;49.166;8.076;2022-09-25T18:03:20;16.90;75.70
46366;DHT22;32073;49.166;8.076;2022-09-25T18:07:20;16.90;75.40
46366;DHT22;32073;49.166;8.076;2022-09-25T18:11:24;16.90;75.50
46366;DHT22;32073;49.166;8.076;2022-09-25T18:15:33;16.80;75.20
46366;DHT22;32073;49.166;8.076;2022-09-25T18:19:34;16.80;74.80
46366;DHT22;32073;49.166;8.076;2022-09-25T18:24:01;16.80;74.50
46366;DHT22;32073;49.166;8.076;2022-09-25T18:28:02;16.70;74.40
46366;DHT22;32073;49.166;8.076;2022-09-25T18:32:03;16.70;74.20
46366;DHT22;32073;49.166;8.076;2022-09-25T18:36:04;16.70;73.90
46366;DHT22;32073;49.166;8.076;2022-09-25T18:40:10;16.60;74.10
46366;DHT22;32073;49.166;8.076;2022-09-25T18:44:12;16.60;74.10
46366;DHT22;32073;49.166;8.076;2022-09-25T18:48:14;16.60;74.10
46366;DHT22;32073;49.166;8.076;2022-09-25T18:52:18;16.60;74.20
46366;DHT22;32073;49.166;8.076;2022-09-25T18:56:19;16.60;74.20
46366;DHT22;32073;49.166;8.076;2022-09-25T19:00:23;16.60;74.20
46366;DHT22;32073;49.166;8.076;2022-09-25T19:04:27;16.60;74.30
46366;DHT22;32073;49.166;8.076;2022-09-25T19:08:34;16.60;74.40
46366;DHT22;32073;49.166;8.076;2022-09-25T19:12:35;16.60;74.20
46366;DHT22;32073;49.166;8.076;2022-09-25T19:16:36;16.60;74.20
46366;DHT22;32073;49.166;8.076;2022-09-25T19:21:11;16.70;74.10
46366;DHT22;32073;49.166;8.076;2022-09-25T19:25:24;16.70;73.90
46366;DHT22;32073;49.166;8.076;2022-09-25T19:29:24;16.70;74.50
46366;DHT22;32073;49.166;8.076;2022-09-25T19:33:27;16.80;74.40
46366;DHT22;32073;49.166;8.076;2022-09-25T19:37:29;16.80;74.10
46366;DHT22;32073;49.166;8.076;2022-09-25T19:41:34;16.70;73.80
46366;DHT22;32073;49.166;8.076;2022-09-25T19:45:35;16.70;73.70
46366;DHT22;32073;49.166;8.076;2022-09-25T19:49:36;16.70;73.80
46366;DHT22;32073;49.166;8.076;2022-09-25T19:53:38;16.70;73.90
46366;DHT22;32073;49.166;8.076;2022-09-25T19:57:40;16.60;73.50
46366;DHT22;32073;49.166;8.076;2022-09-25T20:01:41;16.60;73.60
46366;DHT22;32073;49.166;8.076;2022-09-25T20:05:43;16.60;74.20
46366;DHT22;32073;49.166;8.076;2022-09-25T20:09:43;16.60;73.50
46366;DHT22;32073;49.166;8.076;2022-09-25T20:13:45;16.50;73.40
46366;DHT22;32073;49.166;8.076;2022-09-25T20:17:47;16.40;73.20
46366;DHT22;32073;49.166;8.076;2022-09-25T20:21:48;16.50;73.10
46366;DHT22;32073;49.166;8.076;2022-09-25T20:25:52;16.40;73.00
46366;DHT22;32073;49.166;8.076;2022-09-25T20:29:52;16.40;73.00
46366;DHT22;32073;49.166;8.076;2022-09-25T20:33:53;16.30;72.80
46366;DHT22;32073;49.166;8.076;2022-09-25T20:37:54;16.30;72.70
46366;DHT22;32073;49.166;8.076;2022-09-25T20:41:55;16.20;72.70
46366;DHT22;32073;49.166;8.076;2022-09-25T20:46:01;16.20;72.60
46366;DHT22;32073;49.166;8.076;2022-09-25T20:50:03;16.10;72.40
46366;DHT22;32073;49.166;8.076;2022-09-25T20:54:06;16.10;72.60
46366;DHT22;32073;49.166;8.076;2022-09-25T20:58:08;16.00;72.60
46366;DHT22;32073;49.166;8.076;2022-09-25T21:02:09;16.00;72.50
46366;DHT22;32073;49.166;8.076;2022-09-25T21:06:13;15.90;72.60
46366;DHT22;32073;49.166;8.076;2022-09-25T21:10:15;15.90;72.70
46366;DHT22;32073;49.166;8.076;2022-09-25T21:14:19;15.90;73.00
46366;DHT22;32073;49.166;8.076;2022-09-25T21:18:27;15.90;73.00
46366;DHT22;32073;49.166;8.076;2022-09-25T21:22:27;15.90;72.80
46366;DHT22;32073;49.166;8.076;2022-09-25T21:26:29;15.80;72.50
46366;DHT22;32073;49.166;8.076;2022-09-25T21:30:31;15.80;72.30
46366;DHT22;32073;49.166;8.076;2022-09-25T21:34:32;15.80;72.20
46366;DHT22;32073;49.166;8.076;2022-09-25T21:38:32;15.70;72.10
46366;DHT22;32073;49.166;8.076;2022-09-25T21:42:33;15.60;72.00
46366;DHT22;32073;49.166;8.076;2022-09-25T21:46:34;15.50;72.00
46366;DHT22;32073;49.166;8.076;2022-09-25T21:50:34;15.50;72.10
46366;DHT22;32073;49.166;8.076;2022-09-25T21:54:35;15.40;72.00
46366;DHT22;32073;49.166;8.076;2022-09-25T21:58:36;15.40;72.10
46366;DHT22;32073;49.166;8.076;2022-09-25T22:02:37;15.30;72.00
46366;DHT22;32073;49.166;8.076;2022-09-25T22:06:43;15.30;72.00
46366;DHT22;32073;49.166;8.076;2022-09-25T22:10:56;15.20;72.10
46366;DHT22;32073;49.166;8.076;2022-09-25T22:14:57;15.20;72.10
46366;DHT22;32073;49.166;8.076;2022-09-25T22:19:04;15.10;72.30
46366;DHT22;32073;49.166;8.076;2022-09-25T22:23:09;15.10;71.90
46366;DHT22;32073;49.166;8.076;2022-09-25T22:27:10;15.00;71.90
46366;DHT22;32073;49.166;8.076;2022-09-25T22:31:16;14.90;71.80
46366;DHT22;32073;49.166;8.076;2022-09-25T22:35:22;14.90;71.70
46366;DHT22;32073;49.166;8.076;2022-09-25T22:39:22;14.90;71.70
46366;DHT22;32073;49.166;8.076;2022-09-25T22:43:23;14.80;71.80
46366;DHT22;32073;49.166;8.076;2022-09-25T22:47:23;14.90;72.00
46366;DHT22;32073;49.166;8.076;2022-09-25T22:51:24;14.70;72.60
46366;DHT22;32073;49.166;8.076;2022-09-25T22:55:25;14.70;72.10
46366;DHT22;32073;49.166;8.076;2022-09-25T22:59:26;14.70;72.20
46366;DHT22;32073;49.166;8.076;2022-09-25T23:03:27;14.70;72.20
46366;DHT22;32073;49.166;8.076;2022-09-25T23:07:28;14.70;72.20
46366;DHT22;32073;49.166;8.076;2022-09-25T23:11:29;14.60;72.10
46366;DHT22;32073;49.166;8.076;2022-09-25T23:15:31;14.70;72.10
46366;DHT22;32073;49.166;8.076;2022-09-25T23:19:31;14.60;72.20
46366;DHT22;32073;49.166;8.076;2022-09-25T23:23:32;14.60;72.10
46366;DHT22;32073;49.166;8.076;2022-09-25T23:27:33;14.60;72.00
46366;DHT22;32073;49.166;8.076;2022-09-25T23:31:34;14.60;71.80
46366;DHT22;32073;49.166;8.076;2022-09-25T23:35:35;14.60;71.80
46366;DHT22;32073;49.166;8.076;2022-09-25T23:39:36;14.60;71.90
46366;DHT22;32073;49.166;8.076;2022-09-25T23:43:37;14.60;71.80
46366;DHT22;32073;49.166;8.076;2022-09-25T23:47:38;14.50;71.80
46366;DHT22;32073;49.166;8.076;2022-09-25T23:51:39;14.50;71.80
46366;DHT22;32073;49.166;8.076;2022-09-25T23:55:40;14.50;71.70
46366;DHT22;32073;49.166;8.076;2022-09-25T23:59:41;14.40;71.60
